Time;durP1;ratioP1;P1;durP2;ratioP2;P2;SDS_P1;SDS_P2;PMS_P1;PMS_P2;Temp;Humidity;BMP_temperature;BMP_pressure;BME280_temperature;BME280_humidity;BME280_pressure;Samples;Min_cycle;Max_cycle;Signal;HPM_P1;HPM_P2
2020/12/26 00:01:15;;;;;;;12.13;8.43;;;4.70;99.90;;;;;;4979803;28;20431;-82
2020/12/26 00:03:41;;;;;;;10.70;9.17;;;4.80;99.90;;;;;;5004857;28;20194;-85
2020/12/26 00:06:07;;;;;;;10.73;8.73;;;4.80;99.90;;;;;;5010343;28;20493;-83
2020/12/26 00:08:34;;;;;;;11.40;8.30;;;4.70;99.90;;;;;;4996992;28;20426;-83
2020/12/26 00:11:01;;;;;;;13.63;9.23;;;4.70;99.90;;;;;;5012388;28;20462;-85
2020/12/26 00:13:27;;;;;;;12.77;9.47;;;4.40;99.90;;;;;;4981233;28;20426;-82
2020/12/26 00:15:53;;;;;;;10.70;9.20;;;4.50;99.90;;;;;;4999938;28;20513;-82
2020/12/26 00:18:19;;;;;;;14.53;9.40;;;4.60;99.90;;;;;;4987628;28;20481;-82
2020/12/26 00:20:44;;;;;;;11.10;9.00;;;4.50;99.90;;;;;;5022484;28;20194;-85
2020/12/26 00:23:10;;;;;;;9.53;8.03;;;4.30;99.90;;;;;;4971048;28;20528;-83
2020/12/26 00:25:36;;;;;;;11.90;9.00;;;4.50;99.90;;;;;;5010325;28;20195;-86
2020/12/26 00:28:04;;;;;;;11.70;9.53;;;4.50;99.90;;;;;;5009028;28;20210;-83
2020/12/26 00:30:30;;;;;;;10.13;8.90;;;4.60;99.90;;;;;;5008527;28;20195;-83
2020/12/26 00:32:55;;;;;;;14.27;10.83;;;4.50;99.90;;;;;;4981248;28;20438;-85
2020/12/26 00:35:21;;;;;;;11.00;9.23;;;4.40;99.90;;;;;;4996526;28;20194;-85
2020/12/26 00:37:47;;;;;;;13.53;9.70;;;4.50;99.90;;;;;;4983630;28;20261;-83
2020/12/26 00:40:12;;;;;;;11.00;8.90;;;4.30;99.90;;;;;;4989927;28;20218;-84
2020/12/26 00:42:38;;;;;;;12.97;9.90;;;4.20;99.90;;;;;;4969490;28;20202;-84
2020/12/26 00:45:04;;;;;;;13.63;9.83;;;4.40;99.90;;;;;;4999402;28;20195;-83
2020/12/26 00:47:29;;;;;;;13.60;10.10;;;4.40;99.90;;;;;;5003261;28;20242;-82
2020/12/26 00:49:55;;;;;;;17.07;12.07;;;4.60;99.90;;;;;;4989298;28;20461;-86
2020/12/26 00:52:21;;;;;;;15.23;12.30;;;4.40;99.90;;;;;;4987064;28;20191;-84
2020/12/26 00:54:46;;;;;;;15.70;13.00;;;4.30;99.90;;;;;;5009838;28;20199;-83
2020/12/26 00:57:12;;;;;;;18.67;12.73;;;4.30;99.90;;;;;;4989252;28;20225;-84
2020/12/26 00:59:38;;;;;;;17.40;13.07;;;4.50;99.90;;;;;;4993994;28;20646;-84
2020/12/26 01:02:04;;;;;;;19.50;14.40;;;4.40;99.90;;;;;;4963814;28;20253;-82
2020/12/26 01:04:30;;;;;;;23.37;14.93;;;4.30;99.90;;;;;;5035609;28;20935;-85
2020/12/26 01:06:56;;;;;;;17.27;13.97;;;4.50;99.90;;;;;;5005172;28;20241;-83
2020/12/26 01:09:23;;;;;;;19.47;15.00;;;4.50;99.90;;;;;;4992905;28;20217;-84
2020/12/26 01:11:50;;;;;;;19.83;15.30;;;4.50;99.90;;;;;;4986233;28;20423;-83
2020/12/26 01:14:16;;;;;;;18.60;13.57;;;4.70;99.90;;;;;;4995847;28;21071;-85
2020/12/26 01:16:42;;;;;;;18.87;14.20;;;4.30;99.90;;;;;;4998641;28;20445;-84
2020/12/26 01:19:08;;;;;;;17.90;14.77;;;4.50;99.90;;;;;;4996453;28;20410;-84
2020/12/26 01:21:33;;;;;;;15.70;13.70;;;4.10;99.90;;;;;;4980074;28;20438;-84
2020/12/26 01:23:59;;;;;;;18.40;13.57;;;4.30;99.90;;;;;;4992762;28;20192;-82
2020/12/26 01:26:25;;;;;;;15.03;12.10;;;4.30;99.90;;;;;;4982149;28;20238;-82
2020/12/26 01:28:51;;;;;;;18.67;14.40;;;4.10;99.90;;;;;;4975964;28;20199;-83
2020/12/26 01:31:16;;;;;;;18.97;13.20;;;4.30;99.90;;;;;;4976138;28;20306;-84
2020/12/26 01:33:43;;;;;;;18.50;12.57;;;4.40;99.90;;;;;;4986039;28;20207;-84
2020/12/26 01:36:12;;;;;;;18.33;13.70;;;4.40;99.90;;;;;;4989274;28;20222;-83
2020/12/26 01:38:39;;;;;;;16.17;12.10;;;4.50;99.90;;;;;;4969720;28;20438;-84
2020/12/26 01:41:05;;;;;;;14.23;10.80;;;4.20;99.90;;;;;;4985840;28;20498;-84
2020/12/26 01:43:30;;;;;;;15.73;11.60;;;4.50;99.90;;;;;;4969327;28;20515;-85
2020/12/26 01:45:56;;;;;;;11.40;10.20;;;4.70;99.90;;;;;;4968984;28;20895;-84
2020/12/26 01:48:23;;;;;;;11.30;9.57;;;4.40;99.90;;;;;;5001285;28;20184;-84
2020/12/26 01:50:51;;;;;;;10.63;9.53;;;4.50;99.90;;;;;;4986178;28;20757;-83
2020/12/26 01:53:18;;;;;;;10.90;9.23;;;4.50;99.90;;;;;;5002242;28;20423;-90
2020/12/26 01:55:47;;;;;;;12.13;9.50;;;4.40;99.90;;;;;;5001583;28;20423;-82
2020/12/26 01:58:14;;;;;;;10.30;9.20;;;4.20;99.90;;;;;;4970698;28;20410;-84
2020/12/26 02:00:41;;;;;;;13.13;9.20;;;4.30;99.90;;;;;;5002796;28;20494;-85
2020/12/26 02:03:07;;;;;;;10.20;8.33;;;4.20;99.90;;;;;;5003568;28;20428;-88
2020/12/26 02:05:33;;;;;;;10.80;9.60;;;4.30;99.90;;;;;;5017475;28;20446;-89
2020/12/26 02:07:58;;;;;;;10.03;8.30;;;4.20;99.90;;;;;;5001771;28;20470;-90
2020/12/26 02:10:24;;;;;;;10.30;7.57;;;4.40;99.90;;;;;;5001870;28;20467;-83
2020/12/26 02:12:50;;;;;;;11.10;8.57;;;4.20;99.90;;;;;;5018121;28;20176;-82
2020/12/26 02:15:16;;;;;;;7.73;6.97;;;4.30;99.90;;;;;;4986116;28;20418;-84
2020/12/26 02:17:41;;;;;;;12.03;7.53;;;4.40;99.90;;;;;;5001152;28;20192;-82
2020/12/26 02:20:08;;;;;;;8.87;7.60;;;4.30;99.90;;;;;;5003722;28;20218;-84
2020/12/26 02:22:34;;;;;;;8.93;6.97;;;4.10;99.90;;;;;;4985493;28;20423;-85
2020/12/26 02:25:00;;;;;;;11.93;8.00;;;4.10;99.90;;;;;;4984994;28;20431;-81
2020/12/26 02:27:25;;;;;;;9.90;7.80;;;4.30;99.90;;;;;;4969373;28;20447;-82
2020/12/26 02:29:51;;;;;;;8.70;7.30;;;4.30;99.90;;;;;;4985060;28;20204;-86
2020/12/26 02:32:18;;;;;;;9.00;8.03;;;4.30;99.90;;;;;;4984681;28;20211;-84
2020/12/26 02:34:43;;;;;;;10.73;7.50;;;4.10;99.90;;;;;;4967963;28;20253;-83
2020/12/26 02:37:09;;;;;;;11.97;8.20;;;4.20;99.90;;;;;;4984124;28;20505;-83
2020/12/26 02:39:35;;;;;;;10.30;8.70;;;4.30;99.90;;;;;;4984422;28;20260;-83
2020/12/26 02:42:00;;;;;;;14.70;8.60;;;4.20;99.90;;;;;;4984609;28;20371;-83
2020/12/26 02:44:26;;;;;;;11.93;9.20;;;4.30;99.90;;;;;;4983510;28;20239;-82
2020/12/26 02:46:52;;;;;;;13.97;10.00;;;4.10;99.90;;;;;;4984583;28;20203;-85
2020/12/26 02:49:18;;;;;;;15.20;10.43;;;4.00;99.90;;;;;;5000064;28;20216;-82
2020/12/26 02:51:45;;;;;;;13.00;11.60;;;3.70;99.90;;;;;;4984243;28;20207;-84
2020/12/26 02:54:11;;;;;;;16.30;11.00;;;4.00;99.90;;;;;;4983728;28;20936;-81
2020/12/26 02:56:41;;;;;;;13.43;10.60;;;4.00;99.90;;;;;;4968268;28;20419;-85
2020/12/26 02:59:10;;;;;;;14.83;10.67;;;3.80;99.90;;;;;;4984344;28;20421;-87
2020/12/26 03:01:41;;;;;;;16.07;10.93;;;3.90;99.90;;;;;;4968200;28;20481;-85
2020/12/26 03:04:07;;;;;;;13.07;11.13;;;3.90;99.90;;;;;;4985471;28;20431;-86
2020/12/26 03:06:33;;;;;;;16.23;12.50;;;4.20;99.90;;;;;;4987145;28;20435;-86
2020/12/26 03:08:59;;;;;;;13.17;10.97;;;4.10;99.90;;;;;;4988470;28;20430;-82
2020/12/26 03:11:25;;;;;;;17.33;11.57;;;3.90;99.90;;;;;;5004092;28;20446;-86
2020/12/26 03:13:51;;;;;;;17.90;11.70;;;4.00;99.90;;;;;;4971293;28;20214;-80
2020/12/26 03:16:20;;;;;;;15.67;12.70;;;3.90;99.90;;;;;;4972439;28;20200;-83
2020/12/26 03:18:46;;;;;;;15.93;12.33;;;3.70;99.90;;;;;;4988178;28;20172;-85
2020/12/26 03:21:12;;;;;;;12.57;11.27;;;3.70;99.90;;;;;;4972204;28;20457;-83
2020/12/26 03:23:38;;;;;;;15.27;11.60;;;3.90;99.90;;;;;;4972054;28;20439;-82
2020/12/26 03:26:04;;;;;;;17.50;12.87;;;3.90;99.90;;;;;;4987723;28;20431;-80
2020/12/26 03:28:30;;;;;;;18.70;12.80;;;3.80;99.90;;;;;;4972146;28;20279;-84
2020/12/26 03:30:57;;;;;;;18.33;12.33;;;3.80;99.90;;;;;;4987992;28;20195;-81
2020/12/26 03:33:23;;;;;;;18.07;12.73;;;3.80;99.90;;;;;;4971734;28;20438;-84
2020/12/26 03:35:48;;;;;;;15.10;13.40;;;3.90;99.90;;;;;;5004103;28;20411;-83
2020/12/26 03:38:14;;;;;;;14.53;12.23;;;3.80;99.90;;;;;;4972495;28;20184;-85
2020/12/26 03:40:40;;;;;;;16.17;12.67;;;4.00;99.90;;;;;;4972041;28;20209;-85
2020/12/26 03:43:05;;;;;;;17.30;11.23;;;3.90;99.90;;;;;;4971198;28;20188;-80
2020/12/26 03:45:31;;;;;;;17.80;12.13;;;3.80;99.90;;;;;;4986645;28;20195;-84
2020/12/26 03:47:56;;;;;;;15.20;11.60;;;3.80;99.90;;;;;;5020125;28;20203;-85
2020/12/26 03:50:22;;;;;;;14.57;12.43;;;3.90;99.90;;;;;;4987759;28;20211;-86
2020/12/26 03:52:48;;;;;;;16.80;11.70;;;4.10;99.90;;;;;;4987086;28;20279;-83
2020/12/26 03:55:14;;;;;;;18.17;12.10;;;3.70;99.90;;;;;;4987327;28;20211;-85
2020/12/26 03:57:39;;;;;;;16.13;11.53;;;3.90;99.90;;;;;;4971165;28;20446;-83
2020/12/26 04:00:06;;;;;;;13.57;10.90;;;3.90;99.90;;;;;;4987853;28;20218;-84
2020/12/26 04:02:32;;;;;;;14.97;10.80;;;3.80;99.90;;;;;;5003295;28;20211;-83
2020/12/26 04:04:58;;;;;;;13.00;10.70;;;3.90;99.90;;;;;;4987044;28;20449;-82
2020/12/26 04:07:23;;;;;;;14.60;10.10;;;3.70;99.90;;;;;;4970392;28;20487;-83
2020/12/26 04:09:49;;;;;;;16.07;9.30;;;3.80;99.90;;;;;;5003481;28;20212;-85
2020/12/26 04:12:14;;;;;;;15.07;10.87;;;3.80;99.90;;;;;;4987033;28;20180;-85
2020/12/26 04:14:40;;;;;;;15.10;9.10;;;3.80;99.90;;;;;;4969856;28;20215;-82
2020/12/26 04:17:06;;;;;;;14.47;8.70;;;4.00;99.90;;;;;;4986269;28;20215;-86
2020/12/26 04:19:31;;;;;;;13.33;9.80;;;4.20;99.90;;;;;;4986851;28;20184;-82
2020/12/26 04:21:57;;;;;;;13.90;9.33;;;4.00;99.90;;;;;;4987735;28;20191;-81
2020/12/26 04:24:23;;;;;;;12.40;9.03;;;3.80;99.90;;;;;;4986759;28;20187;-84
2020/12/26 04:26:50;;;;;;;9.90;8.60;;;4.00;99.90;;;;;;4987215;28;20204;-83
2020/12/26 04:29:15;;;;;;;12.67;9.30;;;4.20;99.90;;;;;;4986374;28;20195;-84
2020/12/26 04:31:41;;;;;;;10.77;8.27;;;4.00;99.90;;;;;;4986690;28;20463;-85
2020/12/26 04:34:07;;;;;;;11.27;8.90;;;4.00;99.90;;;;;;5003011;28;20206;-84
2020/12/26 04:36:33;;;;;;;9.33;8.43;;;4.10;99.90;;;;;;4986438;28;20214;-84
2020/12/26 04:38:59;;;;;;;12.43;8.33;;;4.10;99.90;;;;;;4986802;28;20560;-83
2020/12/26 04:41:25;;;;;;;12.80;9.43;;;4.20;99.90;;;;;;4986483;28;20513;-84
2020/12/26 04:43:54;;;;;;;17.97;7.70;;;3.90;99.90;;;;;;4986009;28;20637;-83
2020/12/26 04:46:19;;;;;;;15.23;9.13;;;4.20;99.90;;;;;;5002685;28;20463;-83
2020/12/26 04:49:06;;;;;;;15.10;9.10;;;3.70;99.90;;;;;;5002162;28;20427;-82
2020/12/26 04:51:40;;;;;;;10.70;9.20;;;3.90;99.90;;;;;;4986199;28;20207;-82
2020/12/26 04:54:24;;;;;;;12.33;9.30;;;4.00;99.90;;;;;;4969834;28;20423;-83
2020/12/26 04:56:56;;;;;;;13.67;11.03;;;4.20;99.90;;;;;;5003014;28;20481;-81
2020/12/26 04:59:22;;;;;;;16.27;12.13;;;3.90;99.90;;;;;;5018761;28;20822;-84
2020/12/26 05:01:50;;;;;;;14.97;12.10;;;4.10;99.90;;;;;;5019141;28;20408;-83
2020/12/26 05:04:16;;;;;;;16.10;13.97;;;4.00;99.90;;;;;;4986650;28;20419;-85
2020/12/26 05:06:50;;;;;;;17.57;13.53;;;3.90;99.90;;;;;;4985973;28;20431;-86
2020/12/26 05:09:17;;;;;;;19.00;14.17;;;3.90;99.90;;;;;;4986185;28;20516;-85
2020/12/26 05:11:59;;;;;;;20.63;15.47;;;3.90;99.90;;;;;;4969910;28;20522;-85
2020/12/26 05:14:27;;;;;;;20.27;15.37;;;3.80;99.90;;;;;;4985480;28;20427;-83
2020/12/26 05:16:53;;;;;;;19.90;15.70;;;4.20;99.90;;;;;;4985584;28;21006;-87
2020/12/26 05:19:20;;;;;;;23.07;18.47;;;3.90;99.90;;;;;;4985410;28;20427;-84
2020/12/26 05:21:47;;;;;;;26.57;19.27;;;4.10;99.90;;;;;;4969445;28;20649;-84
2020/12/26 05:24:14;;;;;;;23.33;17.93;;;3.70;99.90;;;;;;4969804;28;20430;-85
2020/12/26 05:26:42;;;;;;;28.53;18.83;;;3.80;99.90;;;;;;4969521;28;20590;-84
2020/12/26 05:29:09;;;;;;;25.40;19.50;;;4.00;99.90;;;;;;4969186;28;20478;-81
2020/12/26 05:32:05;;;;;;;25.63;19.00;;;4.00;99.90;;;;;;4969295;28;20487;-85
2020/12/26 05:34:37;;;;;;;27.30;19.03;;;4.30;99.90;;;;;;5001986;28;20430;-84
2020/12/26 05:37:04;;;;;;;28.63;18.43;;;4.30;99.90;;;;;;4985934;28;20435;-86
2020/12/26 05:39:30;;;;;;;27.43;18.93;;;4.10;99.90;;;;;;4984827;28;20525;-83
2020/12/26 05:41:57;;;;;;;24.80;19.73;;;4.20;99.90;;;;;;4985152;28;20419;-86
2020/12/26 05:44:30;;;;;;;28.93;18.93;;;4.30;99.90;;;;;;5001295;28;20853;-84
2020/12/26 05:46:58;;;;;;;25.73;20.33;;;4.20;99.90;;;;;;4984890;28;20438;-85
2020/12/26 05:49:26;;;;;;;28.77;22.03;;;4.00;99.90;;;;;;5017971;28;20418;-86
2020/12/26 05:51:56;;;;;;;24.87;19.07;;;3.80;99.90;;;;;;4984259;28;20546;-81
2020/12/26 05:54:23;;;;;;;26.80;19.93;;;3.90;99.90;;;;;;4969100;28;20419;-83
2020/12/26 05:56:49;;;;;;;32.63;20.93;;;4.10;99.90;;;;;;4969156;28;20470;-83
2020/12/26 05:59:25;;;;;;;21.20;17.57;;;3.80;99.90;;;;;;4969095;28;20469;-83
2020/12/26 06:01:51;;;;;;;24.07;17.33;;;4.10;99.90;;;;;;4969554;28;20207;-80
2020/12/26 06:04:20;;;;;;;19.57;16.80;;;3.90;99.90;;;;;;4969271;28;20429;-84
2020/12/26 06:06:52;;;;;;;20.10;16.43;;;3.90;99.90;;;;;;4968591;28;20475;-85
2020/12/26 06:09:21;;;;;;;20.30;15.23;;;4.00;99.90;;;;;;4985425;28;20481;-83
2020/12/26 06:11:52;;;;;;;19.37;14.40;;;4.30;99.90;;;;;;4968844;28;20463;-83
2020/12/26 06:14:19;;;;;;;17.07;14.37;;;3.90;99.90;;;;;;4984832;28;20481;-85
2020/12/26 06:16:55;;;;;;;16.63;13.60;;;4.30;99.90;;;;;;4984587;28;20781;-85
2020/12/26 06:19:26;;;;;;;13.47;12.07;;;4.40;99.90;;;;;;4984381;28;20501;-84
2020/12/26 06:21:52;;;;;;;18.80;14.17;;;4.10;99.90;;;;;;4984414;28;20415;-83
2020/12/26 06:24:19;;;;;;;15.70;13.30;;;4.50;99.90;;;;;;5000752;28;20425;-82
2020/12/26 06:26:49;;;;;;;17.13;14.00;;;4.30;99.90;;;;;;4984175;28;20187;-85
2020/12/26 06:29:17;;;;;;;15.23;13.73;;;4.50;99.90;;;;;;4984436;28;20430;-84
2020/12/26 06:31:45;;;;;;;16.50;14.30;;;4.20;99.90;;;;;;5000642;28;20490;-86
2020/12/26 06:34:13;;;;;;;17.33;14.30;;;4.40;99.90;;;;;;4967762;28;20523;-83
2020/12/26 06:36:42;;;;;;;18.00;14.33;;;4.30;99.90;;;;;;5009139;28;20432;-85
2020/12/26 06:39:27;;;;;;;17.70;13.20;;;4.30;99.90;;;;;;5007264;28;20397;-86
2020/12/26 06:42:13;;;;;;;18.47;13.90;;;4.10;99.90;;;;;;5023327;28;20397;-85
2020/12/26 06:44:39;;;;;;;19.57;14.37;;;4.10;99.90;;;;;;5022483;28;20914;-87
2020/12/26 06:47:05;;;;;;;20.47;15.20;;;4.20;99.90;;;;;;5022985;28;20448;-84
2020/12/26 06:49:31;;;;;;;18.57;14.30;;;4.40;99.90;;;;;;5023365;28;20432;-86
2020/12/26 06:51:56;;;;;;;21.30;16.70;;;4.30;99.90;;;;;;5007409;28;20465;-84
2020/12/26 06:54:40;;;;;;;19.40;16.60;;;4.10;99.90;;;;;;4991157;28;20182;-81
2020/12/26 06:57:06;;;;;;;24.43;15.57;;;4.40;99.90;;;;;;5023491;28;20206;-84
2020/12/26 06:59:35;;;;;;;19.60;16.30;;;4.40;99.90;;;;;;5006803;28;20664;-81
2020/12/26 07:02:11;;;;;;;23.97;18.70;;;4.00;99.90;;;;;;5023342;28;20496;-82
2020/12/26 07:04:41;;;;;;;23.60;18.30;;;4.20;99.90;;;;;;5023052;28;20421;-83
2020/12/26 07:07:07;;;;;;;23.23;18.17;;;4.20;99.90;;;;;;5022871;28;20437;-80
2020/12/26 07:09:36;;;;;;;25.10;17.77;;;4.10;99.90;;;;;;4990935;28;20425;-84
2020/12/26 07:12:05;;;;;;;26.77;18.50;;;4.10;99.90;;;;;;5022733;28;20433;-86
2020/12/26 07:14:35;;;;;;;24.63;18.20;;;4.30;99.90;;;;;;5007163;28;20524;-81
2020/12/26 07:17:02;;;;;;;24.57;17.57;;;4.40;99.90;;;;;;5035045;28;20457;-84
2020/12/26 07:19:28;;;;;;;25.13;18.37;;;4.00;99.90;;;;;;4995799;28;20443;-83
2020/12/26 07:21:55;;;;;;;23.43;18.07;;;3.90;99.90;;;;;;5015196;28;20429;-82
2020/12/26 07:24:34;;;;;;;24.33;15.40;;;4.10;99.90;;;;;;5005080;28;20202;-83
2020/12/26 07:27:19;;;;;;;19.27;15.93;;;4.30;99.90;;;;;;4993786;28;20447;-85
2020/12/26 07:30:13;;;;;;;21.17;16.70;;;4.40;99.90;;;;;;5012352;28;20787;-80
2020/12/26 07:32:44;;;;;;;20.07;16.30;;;4.30;99.90;;;;;;5007057;28;20438;-81
2020/12/26 07:35:13;;;;;;;19.83;14.10;;;4.50;99.90;;;;;;5028808;28;20414;-85
2020/12/26 07:37:40;;;;;;;18.03;13.47;;;4.20;99.90;;;;;;4986931;28;20419;-84
2020/12/26 07:40:07;;;;;;;16.90;13.20;;;4.10;99.90;;;;;;4995879;28;20439;-83
2020/12/26 07:42:33;;;;;;;18.77;13.97;;;4.20;99.90;;;;;;5005807;28;20928;-82
2020/12/26 07:45:08;;;;;;;21.33;13.50;;;4.20;99.90;;;;;;4993033;28;20427;-82
2020/12/26 07:47:41;;;;;;;18.03;13.80;;;4.30;99.90;;;;;;4980972;28;20430;-84
2020/12/26 07:50:07;;;;;;;17.10;12.90;;;4.00;99.90;;;;;;5010190;28;20480;-85
2020/12/26 07:52:32;;;;;;;19.07;13.17;;;4.30;99.90;;;;;;5005839;28;20418;-84
2020/12/26 07:54:59;;;;;;;18.00;13.70;;;4.20;99.90;;;;;;4994346;28;20470;-85
2020/12/26 07:57:25;;;;;;;18.80;13.57;;;4.40;99.90;;;;;;5005303;28;20208;-83
2020/12/26 07:59:51;;;;;;;18.47;12.90;;;4.30;99.90;;;;;;5001580;28;20801;-82
2020/12/26 08:02:17;;;;;;;16.87;13.37;;;4.20;99.90;;;;;;4998607;28;20514;-86
2020/12/26 08:04:43;;;;;;;19.40;12.60;;;4.00;99.90;;;;;;5009830;28;20182;-86
2020/12/26 08:07:11;;;;;;;19.30;13.90;;;4.10;99.90;;;;;;5005724;28;20669;-82
2020/12/26 08:09:37;;;;;;;20.63;15.20;;;4.00;99.90;;;;;;4995154;28;20419;-83
2020/12/26 08:12:06;;;;;;;19.50;13.73;;;3.80;99.90;;;;;;4979994;28;20433;-82
2020/12/26 08:14:33;;;;;;;18.70;14.07;;;3.80;99.90;;;;;;4994354;28;20197;-84
2020/12/26 08:16:59;;;;;;;20.30;14.20;;;4.00;99.90;;;;;;5004487;28;20462;-84
2020/12/26 08:19:26;;;;;;;18.30;13.30;;;3.80;99.90;;;;;;4998853;28;20459;-83
2020/12/26 08:21:59;;;;;;;17.07;13.80;;;4.20;99.90;;;;;;4995928;28;20437;-84
2020/12/26 08:24:25;;;;;;;17.87;13.83;;;4.20;99.90;;;;;;4991838;28;20465;-82
2020/12/26 08:26:53;;;;;;;21.10;13.73;;;4.20;99.90;;;;;;5003748;28;20458;-83
2020/12/26 08:29:28;;;;;;;17.60;13.80;;;3.90;99.90;;;;;;4990314;28;20489;-85
2020/12/26 08:32:08;;;;;;;18.37;14.70;;;4.30;99.90;;;;;;4995382;28;20556;-85
2020/12/26 08:34:49;;;;;;;20.07;13.50;;;4.20;99.90;;;;;;4997509;28;20439;-84
2020/12/26 08:37:41;;;;;;;19.43;13.97;;;4.20;99.90;;;;;;5028475;28;20446;-84
2020/12/26 08:40:13;;;;;;;20.67;14.50;;;4.20;99.90;;;;;;5004315;28;20422;-82
2020/12/26 08:42:39;;;;;;;17.53;13.60;;;4.20;99.90;;;;;;5003237;28;20399;-85
2020/12/26 08:45:27;;;;;;;21.13;14.03;;;4.20;99.90;;;;;;4987161;28;20419;-85
2020/12/26 08:47:55;;;;;;;14.63;11.97;;;4.30;99.90;;;;;;5003003;28;20457;-88
2020/12/26 08:50:21;;;;;;;16.83;12.63;;;4.20;99.90;;;;;;5003919;28;20454;-85
2020/12/26 08:53:00;;;;;;;14.67;11.67;;;4.00;99.90;;;;;;5003939;28;20429;-85
2020/12/26 08:55:26;;;;;;;16.03;12.47;;;4.20;99.90;;;;;;5004931;28;20421;-85
2020/12/26 08:57:59;;;;;;;15.23;11.70;;;4.10;99.90;;;;;;4966526;28;20447;-83
2020/12/26 09:00:26;;;;;;;14.97;11.60;;;4.40;99.90;;;;;;4982299;28;20259;-83
2020/12/26 09:02:55;;;;;;;13.17;10.80;;;4.10;99.90;;;;;;4985798;28;20421;-85
2020/12/26 09:05:36;;;;;;;13.63;10.27;;;4.20;99.90;;;;;;5026107;28;20440;-83
2020/12/26 09:08:10;;;;;;;15.00;10.80;;;4.40;99.90;;;;;;5025707;28;20442;-86
2020/12/26 09:11:06;;;;;;;15.13;10.23;;;4.30;99.90;;;;;;4977106;28;20512;-85
2020/12/26 09:13:49;;;;;;;13.60;10.53;;;4.50;99.90;;;;;;5021420;28;20429;-86
2020/12/26 09:16:32;;;;;;;14.00;10.70;;;4.60;99.90;;;;;;5003695;28;20437;-83
2020/12/26 09:19:00;;;;;;;14.13;9.93;;;4.60;99.90;;;;;;4983963;28;20418;-85
2020/12/26 09:21:27;;;;;;;13.17;9.30;;;4.70;99.90;;;;;;4995899;28;20190;-81
2020/12/26 09:23:57;;;;;;;12.90;9.80;;;4.60;99.90;;;;;;4996733;28;20414;-83
2020/12/26 09:26:27;;;;;;;13.60;9.73;;;4.60;99.90;;;;;;4984028;28;20438;-82
2020/12/26 09:28:59;;;;;;;11.17;9.17;;;4.60;99.90;;;;;;5015225;28;20436;-84
2020/12/26 09:31:26;;;;;;;14.07;9.70;;;4.60;99.90;;;;;;5018576;28;20529;-83
2020/12/26 09:33:54;;;;;;;12.10;9.30;;;4.80;99.90;;;;;;4997509;28;20437;-83
2020/12/26 09:36:22;;;;;;;13.33;9.60;;;4.60;99.90;;;;;;5003623;28;20442;-82
2020/12/26 09:38:49;;;;;;;11.70;9.20;;;4.40;99.90;;;;;;4987947;28;20427;-85
2020/12/26 09:41:25;;;;;;;11.90;9.20;;;4.40;99.90;;;;;;4991094;28;20513;-84
2020/12/26 09:43:53;;;;;;;12.57;9.67;;;4.40;99.90;;;;;;4992292;28;20413;-82
2020/12/26 09:46:20;;;;;;;10.87;8.87;;;4.50;99.90;;;;;;5003527;28;20495;-82
2020/12/26 09:48:47;;;;;;;11.07;9.43;;;4.60;99.90;;;;;;4992003;28;20423;-85
2020/12/26 09:51:20;;;;;;;11.90;9.77;;;4.60;99.90;;;;;;4996942;28;20474;-83
2020/12/26 09:53:46;;;;;;;12.80;9.97;;;4.60;99.90;;;;;;4978031;28;20505;-83
2020/12/26 09:56:12;;;;;;;11.90;9.13;;;4.60;99.90;;;;;;5009160;28;20446;-82
2020/12/26 09:58:43;;;;;;;15.57;11.17;;;4.90;99.90;;;;;;5025883;28;20210;-83
2020/12/26 10:01:17;;;;;;;12.67;10.03;;;4.90;99.90;;;;;;5013552;28;20954;-83
2020/12/26 10:03:44;;;;;;;15.57;11.50;;;4.80;99.90;;;;;;4981344;28;20422;-81
2020/12/26 10:06:14;;;;;;;11.73;10.37;;;4.50;99.90;;;;;;5004749;28;20433;-83
2020/12/26 10:08:42;;;;;;;11.27;9.43;;;4.70;99.90;;;;;;4986537;28;20546;-82
2020/12/26 10:11:09;;;;;;;11.50;9.37;;;4.70;99.90;;;;;;4990894;28;20471;-82
2020/12/26 10:13:34;;;;;;;14.03;8.90;;;4.80;99.90;;;;;;5010613;28;20421;-85
2020/12/26 10:16:00;;;;;;;13.13;9.30;;;4.90;99.90;;;;;;4993803;28;20485;-81
2020/12/26 10:18:26;;;;;;;11.70;9.40;;;4.90;99.90;;;;;;4994545;28;20175;-84
2020/12/26 10:20:52;;;;;;;10.90;8.97;;;5.00;99.90;;;;;;4988817;28;20194;-84
2020/12/26 10:23:17;;;;;;;13.03;9.60;;;5.50;99.90;;;;;;5003869;28;20194;-85
2020/12/26 10:25:43;;;;;;;11.93;9.13;;;5.30;99.90;;;;;;4991468;28;20255;-83
2020/12/26 10:28:08;;;;;;;14.77;10.00;;;5.40;99.90;;;;;;4970096;28;20645;-81
2020/12/26 10:30:34;;;;;;;13.52;9.40;;;5.20;99.90;;;;;;4977675;28;20794;-83
2020/12/26 10:33:00;;;;;;;11.80;9.50;;;4.90;99.90;;;;;;5000371;28;20560;-85
2020/12/26 10:35:25;;;;;;;11.10;8.00;;;5.20;99.90;;;;;;4992917;28;20286;-84
2020/12/26 10:37:51;;;;;;;11.10;8.27;;;5.30;99.90;;;;;;4998525;28;20206;-83
2020/12/26 10:40:17;;;;;;;10.63;8.50;;;5.30;99.90;;;;;;4982491;28;20206;-84
2020/12/26 10:42:42;;;;;;;11.00;8.20;;;5.60;99.90;;;;;;4976229;28;20215;-84
2020/12/26 10:45:08;;;;;;;11.40;9.50;;;5.60;99.90;;;;;;4991828;28;20183;-82
2020/12/26 10:47:34;;;;;;;10.77;7.77;;;5.90;99.90;;;;;;4990192;28;20203;-84
2020/12/26 10:49:59;;;;;;;11.70;8.20;;;5.60;99.90;;;;;;4982610;28;20191;-84
2020/12/26 10:52:25;;;;;;;12.90;7.60;;;5.80;99.90;;;;;;4965682;28;20187;-86
2020/12/26 10:54:51;;;;;;;9.90;6.90;;;6.00;99.90;;;;;;4968749;28;20215;-83
2020/12/26 10:57:17;;;;;;;10.67;6.93;;;5.80;99.90;;;;;;4996546;28;20206;-84
2020/12/26 10:59:42;;;;;;;12.20;7.57;;;5.90;99.90;;;;;;4990474;28;20429;-84
2020/12/26 11:02:08;;;;;;;9.93;6.60;;;6.00;99.90;;;;;;4995468;28;20624;-85
2020/12/26 11:04:34;;;;;;;8.33;6.20;;;6.30;99.90;;;;;;4990203;28;20194;-83
2020/12/26 11:07:00;;;;;;;10.90;6.53;;;6.20;99.90;;;;;;4995393;28;20465;-83
2020/12/26 11:09:25;;;;;;;10.70;7.03;;;6.10;99.90;;;;;;4968369;28;20186;-85
2020/12/26 11:11:52;;;;;;;8.70;6.20;;;6.20;99.90;;;;;;5000381;28;20211;-83
2020/12/26 11:14:19;;;;;;;7.13;5.43;;;5.90;99.90;;;;;;4994409;28;20234;-80
2020/12/26 11:16:52;;;;;;;8.27;5.37;;;6.00;99.90;;;;;;5003365;28;20448;-84
2020/12/26 11:19:19;;;;;;;9.47;6.20;;;5.70;99.90;;;;;;4982441;28;20455;-83
2020/12/26 11:21:50;;;;;;;9.03;5.67;;;6.10;99.90;;;;;;5013237;28;20441;-86
2020/12/26 11:24:15;;;;;;;8.97;5.70;;;6.20;99.90;;;;;;4998112;28;20968;-84
2020/12/26 11:26:41;;;;;;;6.63;5.90;;;5.90;99.90;;;;;;4997665;28;20433;-85
2020/12/26 11:29:06;;;;;;;7.50;5.43;;;5.90;99.90;;;;;;4986096;28;20290;-83
2020/12/26 11:31:32;;;;;;;8.07;5.27;;;5.80;99.90;;;;;;4998641;28;20210;-86
2020/12/26 11:33:58;;;;;;;8.90;5.57;;;5.90;99.90;;;;;;4986914;28;20203;-83
2020/12/26 11:36:26;;;;;;;8.03;4.93;;;6.00;99.90;;;;;;4997537;28;20185;-84
2020/12/26 11:38:52;;;;;;;10.43;5.50;;;6.10;99.90;;;;;;4969121;28;20179;-83
2020/12/26 11:41:20;;;;;;;9.07;5.30;;;6.20;99.90;;;;;;5020996;28;20422;-85
2020/12/26 11:43:46;;;;;;;9.53;5.70;;;6.60;99.90;;;;;;5008796;28;20435;-83
2020/12/26 11:46:12;;;;;;;5.90;5.30;;;6.60;99.90;;;;;;4999687;28;20489;-83
2020/12/26 11:48:38;;;;;;;7.33;5.40;;;6.80;99.90;;;;;;4991939;28;20422;-83
2020/12/26 11:51:05;;;;;;;6.97;4.50;;;7.00;99.90;;;;;;5018738;28;20461;-84
2020/12/26 11:53:31;;;;;;;6.03;4.30;;;7.30;99.90;;;;;;4977640;28;20429;-86
2020/12/26 11:55:57;;;;;;;5.57;4.23;;;7.50;99.90;;;;;;5001681;28;21007;-86
2020/12/26 11:58:23;;;;;;;6.30;4.87;;;7.80;99.90;;;;;;5003467;28;20414;-86
2020/12/26 12:00:55;;;;;;;5.33;4.23;;;9.80;99.90;;;;;;4990245;28;20202;-84
2020/12/26 12:03:21;;;;;;;7.30;4.00;;;11.70;98.10;;;;;;5013805;28;20410;-84
2020/12/26 12:05:47;;;;;;;6.67;4.20;;;13.00;96.40;;;;;;4967537;28;20481;-83
2020/12/26 12:08:14;;;;;;;4.60;3.87;;;14.50;92.20;;;;;;5002228;28;20246;-81
2020/12/26 12:10:40;;;;;;;5.87;5.00;;;13.20;92.30;;;;;;5022700;28;20462;-81
2020/12/26 12:13:06;;;;;;;5.93;4.53;;;11.70;94.00;;;;;;5016297;28;20426;-80
2020/12/26 12:15:32;;;;;;;5.03;4.47;;;10.40;97.10;;;;;;5032563;28;20433;-80
2020/12/26 12:18:01;;;;;;;5.23;3.73;;;9.30;99.60;;;;;;5005952;28;20422;-80
2020/12/26 12:20:30;;;;;;;6.57;5.03;;;8.80;99.90;;;;;;5040312;28;20238;-80
2020/12/26 12:22:57;;;;;;;5.70;4.50;;;8.30;99.90;;;;;;5017517;28;20421;-85
2020/12/26 12:25:24;;;;;;;4.77;4.37;;;7.60;99.90;;;;;;5006647;28;20433;-84
2020/12/26 12:27:50;;;;;;;7.10;4.00;;;7.40;99.90;;;;;;5018981;28;20449;-85
2020/12/26 12:30:15;;;;;;;5.90;4.33;;;7.20;99.90;;;;;;4977564;28;20802;-85
2020/12/26 12:32:41;;;;;;;4.80;3.67;;;6.80;99.90;;;;;;5010925;28;20186;-85
2020/12/26 12:35:08;;;;;;;5.17;3.53;;;6.40;99.90;;;;;;5013229;28;20679;-82
2020/12/26 12:37:34;;;;;;;6.13;3.87;;;6.30;99.90;;;;;;4970545;28;20212;-84
2020/12/26 12:39:59;;;;;;;7.90;5.70;;;6.40;99.90;;;;;;5007106;28;20449;-84
2020/12/26 12:42:29;;;;;;;6.40;4.10;;;6.30;99.90;;;;;;4989113;28;20454;-81
2020/12/26 12:44:56;;;;;;;5.10;3.87;;;6.30;99.90;;;;;;4989353;28;20186;-82
2020/12/26 12:47:23;;;;;;;5.77;4.00;;;6.20;99.90;;;;;;5007042;28;20438;-83